createdAt,value
2022-10-11T00:00:35.612Z,71.50
2022-10-11T00:03:10.990Z,71.50
2022-10-11T00:05:44.487Z,71.50
2022-10-11T00:08:17.136Z,71.50
2022-10-11T00:11:06.017Z,71.60
2022-10-11T00:13:38.558Z,71.50
2022-10-11T00:16:15.715Z,71.50
2022-10-11T00:18:50.752Z,71.50
2022-10-11T00:21:23.460Z,71.60
2022-10-11T00:23:55.881Z,71.60
2022-10-11T00:26:28.493Z,71.60
2022-10-11T00:29:01.013Z,71.60
2022-10-11T00:31:35.853Z,71.50
2022-10-11T00:34:10.549Z,71.50
2022-10-11T00:36:43.212Z,71.50
2022-10-11T00:39:15.635Z,71.50
2022-10-11T00:41:51.556Z,71.50
2022-10-11T00:44:26.721Z,71.30
2022-10-11T00:47:06.597Z,71.40
2022-10-11T00:49:56.080Z,71.40
2022-10-11T00:52:40.828Z,71.30
2022-10-11T00:55:17.071Z,71.20
2022-10-11T00:57:55.198Z,71.20
2022-10-11T01:00:27.780Z,71.10
2022-10-11T01:03:01.760Z,71.10
2022-10-11T01:05:36.652Z,71.10
2022-10-11T01:08:09.357Z,71.10
2022-10-11T01:10:41.970Z,71.10
2022-10-11T01:13:39.684Z,71.00
2022-10-11T01:16:15.110Z,71.10
2022-10-11T01:18:57.808Z,71.10
2022-10-11T01:21:50.725Z,71.10
2022-10-11T01:25:29.510Z,71.20
2022-10-11T01:28:38.411Z,71.20
2022-10-11T01:31:42.830Z,71.10
2022-10-11T01:34:49.294Z,71.10
2022-10-11T01:37:47.670Z,71.10
2022-10-11T01:41:06.024Z,71.10
2022-10-11T01:43:47.117Z,71.00
2022-10-11T01:46:37.165Z,71.10
2022-10-11T01:49:41.227Z,71.10
2022-10-11T01:52:23.952Z,71.10
2022-10-11T01:55:09.576Z,71.20
2022-10-11T01:58:31.725Z,71.10
2022-10-11T02:01:37.221Z,71.10
2022-10-11T02:04:33.199Z,71.10
2022-10-11T02:07:22.188Z,71.10
2022-10-11T02:10:07.390Z,71.10
2022-10-11T02:12:54.537Z,71.10
2022-10-11T02:15:38.918Z,71.00
2022-10-11T02:18:28.655Z,71.00
2022-10-11T02:21:05.171Z,71.10
2022-10-11T02:23:49.856Z,71.00
2022-10-11T02:26:25.210Z,71.00
2022-10-11T02:29:04.793Z,71.00
2022-10-11T02:31:38.617Z,71.00
2022-10-11T02:34:28.471Z,71.00
2022-10-11T02:37:24.998Z,71.10
2022-10-11T02:40:24.763Z,71.00
2022-10-11T02:43:09.413Z,71.50
2022-10-11T02:45:45.135Z,71.00
2022-10-11T02:48:18.707Z,70.90
2022-10-11T02:50:59.592Z,70.90
2022-10-11T02:53:32.623Z,71.00
2022-10-11T02:56:05.447Z,71.00
2022-10-11T02:58:38.228Z,70.90
2022-10-11T03:01:38.215Z,71.00
2022-10-11T03:04:10.842Z,71.00
2022-10-11T03:06:43.389Z,71.00
2022-10-11T03:09:15.980Z,70.90
2022-10-11T03:11:48.769Z,70.90
2022-10-11T03:14:21.337Z,71.00
2022-10-11T03:16:53.845Z,71.00
2022-10-11T03:19:26.561Z,71.00
2022-10-11T03:21:59.114Z,71.00
2022-10-11T03:24:31.588Z,71.10
2022-10-11T03:27:04.186Z,71.10
2022-10-11T03:29:36.752Z,71.00
2022-10-11T03:32:09.244Z,71.10
2022-10-11T03:34:41.748Z,71.10
2022-10-11T03:37:14.403Z,71.00
2022-10-11T03:39:47.044Z,71.00
2022-10-11T03:42:19.602Z,71.00
2022-10-11T03:44:52.190Z,71.00
2022-10-11T03:47:25.282Z,71.10
2022-10-11T03:49:57.828Z,71.10
2022-10-11T03:52:30.321Z,71.10
2022-10-11T03:55:02.937Z,71.00
2022-10-11T03:57:35.514Z,71.00
2022-10-11T04:00:08.835Z,71.00
2022-10-11T04:02:41.483Z,71.00
2022-10-11T04:05:14.152Z,71.10
2022-10-11T04:07:46.649Z,71.00
2022-10-11T04:10:19.226Z,71.10
2022-10-11T04:12:51.788Z,71.00
2022-10-11T04:15:24.640Z,71.10
2022-10-11T04:17:57.178Z,71.10
2022-10-11T04:20:29.750Z,71.10
2022-10-11T04:23:02.395Z,71.10
2022-10-11T04:25:35.050Z,71.10
2022-10-11T04:28:09.258Z,71.10
2022-10-11T04:30:41.814Z,71.10
2022-10-11T04:33:14.394Z,71.10
2022-10-11T04:35:46.981Z,71.10
2022-10-11T04:38:19.448Z,71.10
2022-10-11T04:40:51.927Z,71.10
2022-10-11T04:43:24.445Z,71.00
2022-10-11T04:45:56.909Z,71.10
2022-10-11T04:48:29.644Z,71.80
2022-10-11T04:51:02.162Z,71.00
2022-10-11T04:53:34.598Z,71.00
2022-10-11T04:56:11.543Z,71.00
2022-10-11T04:58:44.002Z,71.00
2022-10-11T05:01:16.488Z,70.90
2022-10-11T05:03:49.936Z,71.00
2022-10-11T05:06:22.537Z,70.90
2022-10-11T05:08:55.154Z,70.90
2022-10-11T05:11:27.851Z,70.90
2022-10-11T05:14:00.572Z,71.00
2022-10-11T05:16:33.108Z,71.00
2022-10-11T05:19:05.767Z,71.10
2022-10-11T05:21:38.438Z,71.00
2022-10-11T05:24:10.975Z,71.00
2022-10-11T05:26:43.469Z,71.00
2022-10-11T05:29:16.422Z,71.50
2022-10-11T05:31:48.812Z,71.10
2022-10-11T05:34:21.308Z,71.20
2022-10-11T05:36:53.973Z,71.00
2022-10-11T05:39:26.534Z,71.00
2022-10-11T05:41:59.163Z,71.00
2022-10-11T05:44:31.611Z,71.00
2022-10-11T05:47:04.154Z,70.80
2022-10-11T05:49:36.761Z,70.80
2022-10-11T05:52:10.738Z,70.70
2022-10-11T05:54:43.290Z,70.60
2022-10-11T05:57:15.947Z,70.40
2022-10-11T05:59:48.514Z,70.30
2022-10-11T06:02:21.151Z,70.00
2022-10-11T06:04:53.655Z,69.80
2022-10-11T06:07:26.380Z,69.60
2022-10-11T06:09:58.987Z,69.50
2022-10-11T06:12:31.892Z,69.30
2022-10-11T06:15:04.802Z,69.20
2022-10-11T06:17:38.050Z,69.20
2022-10-11T06:20:10.865Z,68.90
2022-10-11T06:22:43.375Z,68.70
2022-10-11T06:25:15.994Z,68.50
2022-10-11T06:27:48.584Z,68.30
2022-10-11T06:30:21.063Z,68.10
2022-10-11T06:32:53.560Z,67.90
2022-10-11T06:35:26.148Z,67.80
2022-10-11T06:37:58.648Z,67.60
2022-10-11T06:40:31.130Z,67.40
2022-10-11T06:43:04.017Z,67.30
2022-10-11T06:45:36.413Z,67.00
2022-10-11T06:48:09.093Z,67.10
2022-10-11T06:50:59.168Z,66.80
2022-10-11T06:53:32.351Z,66.70
2022-10-11T06:56:07.870Z,66.50
2022-10-11T06:58:41.429Z,66.30
2022-10-11T07:01:20.732Z,66.20
2022-10-11T07:03:54.978Z,66.00
2022-10-11T07:06:30.138Z,65.80
2022-10-11T07:09:02.663Z,65.60
2022-10-11T07:11:35.789Z,65.40
2022-10-11T07:14:08.460Z,65.30
2022-10-11T07:16:41.017Z,65.20
2022-10-11T07:19:13.516Z,65.00
2022-10-11T07:21:46.080Z,64.80
2022-10-11T07:24:19.255Z,64.80
2022-10-11T07:26:52.022Z,64.70
2022-10-11T07:29:24.668Z,64.60
2022-10-11T07:31:57.195Z,64.60
2022-10-11T07:34:29.694Z,64.60
2022-10-11T07:37:03.222Z,64.50
2022-10-11T07:39:35.861Z,64.40
2022-10-11T07:42:10.141Z,64.40
2022-10-11T07:44:42.623Z,64.30
2022-10-11T07:47:15.148Z,64.50
2022-10-11T07:49:47.638Z,64.40
2022-10-11T07:52:20.128Z,64.30
2022-10-11T07:54:52.601Z,64.30
2022-10-11T07:57:25.095Z,64.20
2022-10-11T07:59:57.681Z,64.10
2022-10-11T08:02:30.962Z,64.00
2022-10-11T08:05:03.807Z,64.90
2022-10-11T08:07:36.760Z,64.00
2022-10-11T08:10:09.830Z,64.10
2022-10-11T08:12:42.288Z,64.00
2022-10-11T08:15:14.973Z,63.90
2022-10-11T08:17:48.032Z,63.90
2022-10-11T08:20:21.423Z,63.70
2022-10-11T08:22:54.301Z,63.60
2022-10-11T08:25:26.810Z,63.70
2022-10-11T08:27:59.230Z,63.70
2022-10-11T08:30:31.702Z,63.50
2022-10-11T08:33:08.462Z,63.50
2022-10-11T08:35:41.215Z,63.40
2022-10-11T08:38:13.927Z,63.40
2022-10-11T08:40:47.543Z,63.50
2022-10-11T08:44:07.561Z,63.60
2022-10-11T08:46:43.373Z,63.40
2022-10-11T08:49:22.480Z,63.40
2022-10-11T08:52:04.122Z,63.50
2022-10-11T08:54:44.765Z,63.20
2022-10-11T08:57:21.288Z,62.90
2022-10-11T08:59:59.848Z,62.90
2022-10-11T09:03:03.011Z,62.70
2022-10-11T09:05:35.080Z,62.50
2022-10-11T09:08:16.195Z,62.30
2022-10-11T09:11:09.371Z,62.20
2022-10-11T09:13:49.636Z,62.10
2022-10-11T09:16:30.782Z,62.30
2022-10-11T09:19:42.395Z,62.10
2022-10-11T09:22:31.391Z,62.00
2022-10-11T09:25:22.819Z,62.10
2022-10-11T09:28:18.279Z,61.90
2022-10-11T09:30:55.684Z,61.80
2022-10-11T09:33:35.637Z,61.70
2022-10-11T09:36:28.871Z,61.90
2022-10-11T09:39:13.212Z,61.80
2022-10-11T09:41:51.830Z,62.10
2022-10-11T09:44:27.541Z,61.70
2022-10-11T09:47:00.415Z,61.70
2022-10-11T09:49:56.541Z,61.60
2022-10-11T09:52:29.389Z,61.60
2022-10-11T09:55:03.194Z,61.40
2022-10-11T09:57:39.791Z,61.20
2022-10-11T10:00:24.664Z,61.20
2022-10-11T10:02:59.745Z,61.10
2022-10-11T10:05:37.704Z,61.00
2022-10-11T10:08:10.161Z,60.70
2022-10-11T10:11:00.582Z,60.70
2022-10-11T10:13:51.994Z,60.70
2022-10-11T10:16:28.340Z,60.80
2022-10-11T10:19:07.366Z,60.70
2022-10-11T10:21:47.878Z,60.90
2022-10-11T10:24:37.941Z,61.00
2022-10-11T10:27:30.678Z,60.70
2022-10-11T10:30:09.257Z,60.80
2022-10-11T10:32:48.753Z,60.90
2022-10-11T10:35:45.847Z,61.00
2022-10-11T10:38:52.556Z,61.30
2022-10-11T10:41:26.070Z,61.00
2022-10-11T10:44:00.851Z,61.10
2022-10-11T10:46:48.357Z,61.00
2022-10-11T10:49:54.957Z,61.20
2022-10-11T10:52:48.924Z,61.30
2022-10-11T10:55:28.613Z,61.50
2022-10-11T10:58:36.338Z,61.50
2022-10-11T11:01:32.743Z,61.60
2022-10-11T11:04:27.112Z,61.70
2022-10-11T11:07:19.875Z,61.70
2022-10-11T11:09:59.341Z,61.60
2022-10-11T11:13:03.255Z,61.80
2022-10-11T11:15:43.259Z,61.90
2022-10-11T11:18:27.021Z,61.70
2022-10-11T11:21:24.415Z,61.70
2022-10-11T11:23:56.915Z,61.80
2022-10-11T11:26:44.447Z,61.70
2022-10-11T11:29:58.681Z,61.90
2022-10-11T11:32:44.795Z,61.90
2022-10-11T11:35:28.079Z,61.80
2022-10-11T11:38:17.105Z,61.80
2022-10-11T11:41:02.829Z,61.70
2022-10-11T11:44:04.647Z,61.70
2022-10-11T11:47:02.166Z,61.60
2022-10-11T11:49:41.954Z,61.60
2022-10-11T11:52:25.633Z,61.70
2022-10-11T11:55:36.566Z,61.70
2022-10-11T11:58:21.983Z,61.80
2022-10-11T12:01:24.011Z,62.00
2022-10-11T12:04:01.623Z,62.50
2022-10-11T12:06:47.751Z,62.40
2022-10-11T12:09:31.159Z,62.30
2022-10-11T12:12:09.514Z,62.60
2022-10-11T12:14:42.777Z,62.90
2022-10-11T12:17:22.733Z,63.10
2022-10-11T12:20:24.685Z,63.40
2022-10-11T12:23:24.808Z,63.70
2022-10-11T12:26:27.910Z,63.80
2022-10-11T12:29:42.887Z,63.90
2022-10-11T12:32:27.839Z,63.70
2022-10-11T12:35:32.154Z,63.60
2022-10-11T12:38:04.621Z,63.40
2022-10-11T12:40:43.243Z,63.10
2022-10-11T12:43:15.694Z,62.60
2022-10-11T12:45:48.471Z,62.30
2022-10-11T12:48:40.664Z,62.20
2022-10-11T12:51:28.300Z,62.00
2022-10-11T12:54:39.419Z,61.80
2022-10-11T12:57:26.550Z,61.70
2022-10-11T13:00:23.917Z,61.40
2022-10-11T13:02:58.185Z,61.20
2022-10-11T13:06:01.479Z,61.20
2022-10-11T13:08:37.944Z,61.10
2022-10-11T13:11:18.122Z,60.90
2022-10-11T13:14:06.826Z,60.70
2022-10-11T13:17:04.665Z,60.60
2022-10-11T13:22:19.748Z,60.00
2022-10-11T13:24:57.932Z,60.00
2022-10-11T13:27:30.575Z,60.00
2022-10-11T13:30:09.248Z,60.00
2022-10-11T13:32:43.625Z,60.10
2022-10-11T13:35:36.678Z,59.90
2022-10-11T13:38:18.842Z,59.70
2022-10-11T13:40:51.924Z,59.60
2022-10-11T13:43:27.629Z,59.70
2022-10-11T13:46:03.091Z,59.80
2022-10-11T13:48:56.312Z,59.60
2022-10-11T13:51:37.623Z,59.60
2022-10-11T13:54:13.790Z,59.40
2022-10-11T13:56:51.192Z,59.40
2022-10-11T13:59:25.642Z,58.80
2022-10-11T14:02:04.620Z,58.90
2022-10-11T14:04:41.869Z,59.00
2022-10-11T14:07:47.960Z,58.80
2022-10-11T14:10:22.443Z,59.00
2022-10-11T14:13:00.973Z,58.70
2022-10-11T14:15:38.364Z,58.90
2022-10-11T14:18:37.082Z,58.90
2022-10-11T14:21:25.089Z,58.90
2022-10-11T14:24:06.717Z,58.90
2022-10-11T14:26:44.422Z,59.10
2022-10-11T14:29:39.146Z,59.30
2022-10-11T14:32:16.369Z,59.50
2022-10-11T14:34:50.079Z,59.70
2022-10-11T14:37:23.555Z,59.90
2022-10-11T14:39:56.033Z,60.10
2022-10-11T14:42:28.582Z,61.10
2022-10-11T14:45:01.158Z,60.30
2022-10-11T14:47:33.682Z,60.40
2022-10-11T14:50:26.902Z,60.50
2022-10-11T14:52:59.365Z,60.60
2022-10-11T14:55:32.377Z,60.50
2022-10-11T14:58:06.034Z,60.60
2022-10-11T15:00:38.670Z,60.70
2022-10-11T15:03:11.438Z,60.80
2022-10-11T15:05:44.028Z,61.10
2022-10-11T15:08:16.564Z,61.50
2022-10-11T15:10:49.270Z,61.90
2022-10-11T15:13:22.875Z,62.30
2022-10-11T15:15:55.599Z,62.60
2022-10-11T15:18:28.111Z,62.80
2022-10-11T15:21:00.818Z,63.20
2022-10-11T15:23:33.665Z,63.40
2022-10-11T15:26:06.212Z,63.80
2022-10-11T15:28:39.163Z,63.90
2022-10-11T15:31:12.606Z,64.10
2022-10-11T15:33:45.117Z,64.50
2022-10-11T15:36:21.361Z,64.70
2022-10-11T15:38:53.838Z,65.00
2022-10-11T15:41:26.429Z,65.20
2022-10-11T15:43:58.897Z,65.50
2022-10-11T15:46:31.412Z,65.60
2022-10-11T15:49:10.800Z,65.80
2022-10-11T15:51:43.688Z,65.80
2022-10-11T15:54:16.072Z,65.80
2022-10-11T15:56:48.580Z,65.90
2022-10-11T15:59:21.093Z,66.80
2022-10-11T16:01:55.104Z,65.90
2022-10-11T16:04:29.327Z,66.00
2022-10-11T16:07:01.927Z,66.00
2022-10-11T16:09:34.502Z,66.00
2022-10-11T16:12:07.144Z,66.10
2022-10-11T16:14:42.589Z,66.20
2022-10-11T16:17:17.361Z,66.20
2022-10-11T16:19:50.833Z,66.20
2022-10-11T16:22:24.514Z,66.20
2022-10-11T16:24:57.142Z,66.30
2022-10-11T16:27:29.812Z,66.30
2022-10-11T16:30:02.974Z,66.40
2022-10-11T16:32:35.475Z,66.50
2022-10-11T16:35:09.314Z,66.50
2022-10-11T16:37:42.122Z,66.60
2022-10-11T16:40:17.752Z,66.70
2022-10-11T16:42:50.383Z,66.70
2022-10-11T16:45:23.106Z,66.80
2022-10-11T16:47:55.650Z,66.80
2022-10-11T16:50:29.626Z,66.80
2022-10-11T16:53:02.249Z,66.90
2022-10-11T16:55:34.839Z,66.90
2022-10-11T16:58:11.633Z,66.90
2022-10-11T17:00:49.149Z,66.90
2022-10-11T17:03:25.631Z,66.90
2022-10-11T17:06:02.267Z,66.90
2022-10-11T17:08:36.218Z,66.90
2022-10-11T17:11:09.022Z,66.90
2022-10-11T17:13:41.598Z,66.90
2022-10-11T17:16:14.698Z,66.90
2022-10-11T17:18:47.219Z,66.80
2022-10-11T17:21:21.667Z,66.80
2022-10-11T17:23:54.409Z,66.70
2022-10-11T17:26:28.105Z,66.60
2022-10-11T17:29:01.491Z,66.70
2022-10-11T17:31:34.090Z,66.60
2022-10-11T17:34:07.027Z,66.50
2022-10-11T17:36:41.209Z,66.60
2022-10-11T17:39:19.365Z,66.60
2022-10-11T17:41:52.204Z,66.50
2022-10-11T17:44:24.634Z,66.60
2022-10-11T17:46:57.224Z,66.60
2022-10-11T17:49:29.912Z,66.50
2022-10-11T17:52:02.410Z,66.60
2022-10-11T17:54:35.203Z,66.50
2022-10-11T17:57:07.537Z,66.60
2022-10-11T17:59:45.631Z,66.50
2022-10-11T18:02:22.767Z,66.50
2022-10-11T18:04:58.508Z,66.60
2022-10-11T18:07:31.130Z,66.60
2022-10-11T18:10:03.988Z,66.60
2022-10-11T18:12:36.421Z,66.50
2022-10-11T18:15:11.725Z,66.50
2022-10-11T18:17:44.174Z,66.40
2022-10-11T18:20:16.853Z,66.50
2022-10-11T18:22:50.586Z,66.50
2022-10-11T18:25:23.055Z,67.30
2022-10-11T18:27:55.599Z,66.40
2022-10-11T18:30:28.314Z,66.30
2022-10-11T18:33:00.889Z,66.30
2022-10-11T18:35:33.335Z,66.20
2022-10-11T18:38:06.404Z,66.20
2022-10-11T18:40:44.765Z,66.20
2022-10-11T18:43:19.445Z,66.20
2022-10-11T18:45:52.046Z,66.20
2022-10-11T18:48:24.581Z,66.20
2022-10-11T18:51:12.015Z,66.20
2022-10-11T18:53:44.986Z,66.30
2022-10-11T18:56:20.947Z,66.20
2022-10-11T18:58:55.262Z,66.20
2022-10-11T19:01:29.374Z,66.20
2022-10-11T19:04:03.062Z,66.20
2022-10-11T19:06:38.626Z,66.20
2022-10-11T19:09:22.003Z,66.20
2022-10-11T19:11:56.251Z,66.30
2022-10-11T19:14:30.452Z,66.40
2022-10-11T19:17:02.966Z,66.30
2022-10-11T19:19:35.657Z,66.30
2022-10-11T19:22:08.228Z,66.40
2022-10-11T19:24:41.106Z,66.40
2022-10-11T19:27:13.609Z,66.40
2022-10-11T19:29:46.247Z,66.30
2022-10-11T19:32:18.803Z,66.40
2022-10-11T19:34:51.325Z,66.40
2022-10-11T19:37:23.885Z,66.50
2022-10-11T19:39:56.319Z,66.50
2022-10-11T19:42:28.982Z,66.50
2022-10-11T19:45:01.685Z,66.50
2022-10-11T19:47:34.260Z,66.50
2022-10-11T19:50:07.472Z,66.60
2022-10-11T19:52:44.734Z,66.60
2022-10-11T19:55:17.583Z,66.60
2022-10-11T19:57:50.111Z,66.70
2022-10-11T20:00:22.815Z,66.70
2022-10-11T20:02:55.295Z,66.80
2022-10-11T20:05:28.223Z,66.80
2022-10-11T20:08:00.534Z,66.80
2022-10-11T20:10:34.192Z,66.80
2022-10-11T20:13:11.748Z,66.80
2022-10-11T20:15:44.307Z,66.90
2022-10-11T20:18:17.479Z,67.00
2022-10-11T20:20:55.267Z,67.10
2022-10-11T20:23:28.023Z,67.10
2022-10-11T20:26:15.361Z,67.10
2022-10-11T20:28:52.336Z,67.20
2022-10-11T20:31:33.104Z,67.20
2022-10-11T20:34:07.644Z,67.20
2022-10-11T20:36:40.311Z,67.20
2022-10-11T20:39:13.142Z,67.30
2022-10-11T20:41:45.727Z,67.20
2022-10-11T20:44:18.442Z,67.30
2022-10-11T20:46:51.043Z,67.20
2022-10-11T20:49:23.616Z,67.20
2022-10-11T20:51:56.354Z,67.20
2022-10-11T20:54:30.016Z,67.20
2022-10-11T20:57:03.246Z,67.30
2022-10-11T20:59:35.963Z,67.30
2022-10-11T21:02:10.171Z,67.30
2022-10-11T21:04:42.682Z,67.40
2022-10-11T21:07:15.540Z,67.40
2022-10-11T21:09:48.003Z,67.40
2022-10-11T21:12:20.819Z,67.40
2022-10-11T21:14:53.536Z,67.40
2022-10-11T21:17:26.082Z,67.30
2022-10-11T21:20:01.009Z,67.40
2022-10-11T21:22:34.195Z,67.50
2022-10-11T21:25:07.436Z,67.50
2022-10-11T21:27:39.992Z,67.40
2022-10-11T21:30:12.447Z,67.50
2022-10-11T21:32:44.943Z,67.50
2022-10-11T21:35:17.866Z,67.40
2022-10-11T21:37:50.184Z,67.40
2022-10-11T21:40:22.838Z,67.40
2022-10-11T21:42:55.869Z,67.50
2022-10-11T21:45:28.684Z,67.50
2022-10-11T21:48:01.362Z,67.50
2022-10-11T21:50:34.044Z,67.60
2022-10-11T21:53:06.686Z,67.60
2022-10-11T21:55:39.168Z,67.60
2022-10-11T21:58:11.744Z,67.70
2022-10-11T22:00:46.973Z,67.70
2022-10-11T22:03:19.826Z,67.70
2022-10-11T22:05:52.467Z,67.70
2022-10-11T22:08:25.028Z,67.80
2022-10-11T22:10:59.939Z,67.80
2022-10-11T22:13:34.125Z,67.90
2022-10-11T22:16:09.260Z,67.80
2022-10-11T22:18:42.854Z,67.90
2022-10-11T22:21:16.883Z,67.80
2022-10-11T22:23:51.155Z,67.80
2022-10-11T22:26:26.480Z,67.80
2022-10-11T22:29:00.582Z,67.80
2022-10-11T22:31:34.766Z,67.80
2022-10-11T22:34:07.285Z,67.90
2022-10-11T22:36:39.831Z,67.90
2022-10-11T22:39:12.415Z,67.90
2022-10-11T22:41:44.971Z,67.90
2022-10-11T22:44:17.400Z,68.00
2022-10-11T22:46:49.977Z,67.90
2022-10-11T22:49:27.004Z,68.00
2022-10-11T22:51:59.573Z,68.00
2022-10-11T22:54:32.471Z,68.00
2022-10-11T22:57:05.128Z,68.10
2022-10-11T22:59:37.650Z,68.00
2022-10-11T23:02:10.222Z,68.00
2022-10-11T23:04:42.833Z,68.10
2022-10-11T23:07:15.404Z,68.10
2022-10-11T23:09:47.870Z,68.20
2022-10-11T23:12:20.375Z,68.20
2022-10-11T23:14:55.868Z,68.20
2022-10-11T23:17:28.292Z,68.20
2022-10-11T23:20:01.055Z,68.30
2022-10-11T23:22:33.501Z,68.30
2022-10-11T23:25:06.612Z,68.30
2022-10-11T23:27:39.381Z,68.40
2022-10-11T23:30:13.094Z,68.30
2022-10-11T23:32:45.683Z,68.40
2022-10-11T23:35:18.261Z,68.40
2022-10-11T23:37:50.762Z,68.40
2022-10-11T23:40:23.306Z,68.50
2022-10-11T23:42:55.812Z,68.50
2022-10-11T23:45:28.356Z,68.50
2022-10-11T23:48:00.896Z,68.50
2022-10-11T23:50:33.344Z,68.50
2022-10-11T23:53:05.948Z,68.50
2022-10-11T23:55:38.427Z,68.50
2022-10-11T23:58:11.078Z,68.50
